createdAt,value
2019-04-21T00:00:45.615Z,13.50
2019-04-21T00:03:21.701Z,13.45
2019-04-21T00:06:04.534Z,13.43
2019-04-21T00:08:35.361Z,13.39
2019-04-21T00:11:09.436Z,13.45
2019-04-21T00:13:32.830Z,13.44
2019-04-21T00:15:55.900Z,13.39
2019-04-21T00:18:48.609Z,13.32
2019-04-21T00:21:22.524Z,13.19
2019-04-21T00:24:01.807Z,13.17
2019-04-21T00:26:33.024Z,13.12
2019-04-21T00:29:09.583Z,13.07
2019-04-21T00:31:33.648Z,13.01
2019-04-21T00:33:50.187Z,13.02
2019-04-21T00:36:25.940Z,12.99
2019-04-21T00:39:23.287Z,12.94
2019-04-21T00:41:45.025Z,12.93
2019-04-21T00:44:08.718Z,12.87
2019-04-21T00:46:40.286Z,12.81
2019-04-21T00:49:18.189Z,12.78
2019-04-21T00:52:11.401Z,12.74
2019-04-21T00:54:51.966Z,12.64
2019-04-21T00:57:17.777Z,12.56
2019-04-21T00:59:47.868Z,12.52
2019-04-21T01:02:15.494Z,12.48
2019-04-21T01:04:50.106Z,12.45
2019-04-21T01:07:19.418Z,12.39
2019-04-21T01:09:45.285Z,12.37
2019-04-21T01:12:19.271Z,12.34
2019-04-21T01:14:58.145Z,12.17
2019-04-21T01:17:21.698Z,12.05
2019-04-21T01:19:52.339Z,12.00
2019-04-21T01:22:06.704Z,11.98
2019-04-21T01:24:41.787Z,12.03
2019-04-21T01:27:21.102Z,12.03
2019-04-21T01:30:01.256Z,12.01
2019-04-21T01:32:29.638Z,11.93
2019-04-21T01:35:02.626Z,11.75
2019-04-21T01:37:42.185Z,11.73
2019-04-21T01:40:14.773Z,11.70
2019-04-21T01:42:31.674Z,11.72
2019-04-21T01:45:05.403Z,11.68
2019-04-21T01:47:36.031Z,11.63
2019-04-21T01:49:59.257Z,11.60
2019-04-21T01:52:50.295Z,11.57
2019-04-21T01:55:24.930Z,11.53
2019-04-21T01:57:52.708Z,11.54
2019-04-21T02:00:30.518Z,11.49
2019-04-21T02:03:10.729Z,11.50
2019-04-21T02:05:37.739Z,11.46
2019-04-21T02:08:01.089Z,11.45
2019-04-21T02:10:40.306Z,11.39
2019-04-21T02:13:03.623Z,11.35
2019-04-21T02:15:43.004Z,11.38
2019-04-21T02:18:07.523Z,11.37
2019-04-21T02:20:34.498Z,11.31
2019-04-21T02:23:26.453Z,11.33
2019-04-21T02:25:47.676Z,11.34
2019-04-21T02:28:24.456Z,11.36
2019-04-21T02:33:47.478Z,11.44
2019-04-21T02:36:15.089Z,11.35
2019-04-21T02:38:39.345Z,11.19
2019-04-21T02:41:01.871Z,11.14
2019-04-21T02:46:13.007Z,11.17
2019-04-21T02:48:45.781Z,11.13
2019-04-21T02:51:10.349Z,11.09
2019-04-21T02:56:19.163Z,11.04
2019-04-21T03:01:31.279Z,11.00
2019-04-21T03:06:54.210Z,10.82
2019-04-21T03:09:24.354Z,10.68
2019-04-21T03:11:56.391Z,10.59
2019-04-21T03:14:31.053Z,10.58
2019-04-21T03:16:47.206Z,10.57
2019-04-21T03:19:33.023Z,10.55
2019-04-21T03:22:00.694Z,10.50
2019-04-21T03:24:33.192Z,10.46
2019-04-21T03:27:09.837Z,10.39
2019-04-21T03:29:40.203Z,10.32
2019-04-21T03:32:36.618Z,10.38
2019-04-21T03:35:00.440Z,10.33
2019-04-21T03:39:45.510Z,10.18
2019-04-21T03:42:21.593Z,10.17
2019-04-21T03:44:37.282Z,10.14
2019-04-21T03:47:15.311Z,10.00
2019-04-21T03:49:47.721Z,9.94
2019-04-21T04:03:28.118Z,9.96
2019-04-21T04:05:59.614Z,9.95
2019-04-21T04:08:43.809Z,9.91
2019-04-21T04:11:06.779Z,9.87
2019-04-21T04:13:37.203Z,9.86
2019-04-21T04:16:05.745Z,9.85
2019-04-21T04:18:41.152Z,9.76
2019-04-21T04:21:10.233Z,9.80
2019-04-21T04:23:41.563Z,9.76
2019-04-21T04:26:08.556Z,9.75
2019-04-21T04:36:33.920Z,9.50
2019-04-21T04:38:46.821Z,9.51
2019-04-21T04:41:47.127Z,9.49
2019-04-21T04:44:39.370Z,9.48
2019-04-21T04:46:26.637Z,9.47
2019-04-21T04:49:06.038Z,9.47
2019-04-21T04:53:55.381Z,9.46
2019-04-21T04:56:30.674Z,9.48
2019-04-21T04:59:24.571Z,9.44
2019-04-21T05:04:10.158Z,9.36
2019-04-21T05:09:15.101Z,9.50
2019-04-21T05:11:55.464Z,9.55
2019-04-21T05:14:13.334Z,9.62
2019-04-21T05:19:14.574Z,9.59
2019-04-21T05:21:39.003Z,9.58
2019-04-21T05:24:10.861Z,9.64
2019-04-21T05:26:32.773Z,9.70
2019-04-21T05:29:01.836Z,9.82
2019-04-21T05:32:00.481Z,9.92
2019-04-21T05:34:31.637Z,9.98
2019-04-21T05:37:20.189Z,9.95
2019-04-21T05:39:51.029Z,9.94
2019-04-21T05:42:10.462Z,9.95
2019-04-21T05:45:01.782Z,10.03
2019-04-21T05:47:35.318Z,10.08
2019-04-21T05:50:00.836Z,10.15
2019-04-21T05:52:26.423Z,10.18
2019-04-21T05:55:10.990Z,10.19
2019-04-21T05:57:38.078Z,10.26
2019-04-21T06:00:12.461Z,10.41
2019-04-21T06:02:43.793Z,10.50
2019-04-21T06:05:23.128Z,10.60
2019-04-21T06:07:41.438Z,10.73
2019-04-21T06:10:15.313Z,10.92
2019-04-21T06:12:53.804Z,11.09
2019-04-21T06:15:27.029Z,11.26
2019-04-21T06:17:50.554Z,11.41
2019-04-21T06:20:20.650Z,11.61
2019-04-21T06:22:56.559Z,11.70
2019-04-21T06:27:57.486Z,12.23
2019-04-21T06:30:33.285Z,12.43
2019-04-21T06:32:59.509Z,12.58
2019-04-21T06:35:55.562Z,12.91
2019-04-21T06:38:15.247Z,13.27
2019-04-21T06:40:46.271Z,13.45
2019-04-21T06:43:18.035Z,13.58
2019-04-21T06:45:50.467Z,13.75
2019-04-21T06:48:13.646Z,13.79
2019-04-21T06:50:51.084Z,13.98
2019-04-21T06:53:20.745Z,14.13
2019-04-21T06:55:46.742Z,14.38
2019-04-21T06:58:18.133Z,14.53
2019-04-21T07:00:42.465Z,14.67
2019-04-21T07:03:26.812Z,14.70
2019-04-21T07:05:57.294Z,14.69
2019-04-21T07:10:54.496Z,14.71
2019-04-21T07:13:23.580Z,14.76
2019-04-21T07:15:57.098Z,14.82
2019-04-21T07:18:34.337Z,14.91
2019-04-21T07:21:01.988Z,15.00
2019-04-21T07:23:32.355Z,15.09
2019-04-21T07:26:05.694Z,15.17
2019-04-21T07:28:38.845Z,15.40
2019-04-21T07:31:11.175Z,15.67
2019-04-21T07:33:53.859Z,15.92
2019-04-21T07:36:17.402Z,16.22
2019-04-21T07:38:39.986Z,16.41
2019-04-21T07:41:02.286Z,16.70
2019-04-21T07:43:35.578Z,17.05
2019-04-21T07:46:06.438Z,17.50
2019-04-21T07:48:52.572Z,17.74
2019-04-21T07:51:42.294Z,17.76
2019-04-21T07:54:13.748Z,17.76
2019-04-21T07:56:25.527Z,17.92
2019-04-21T07:59:18.878Z,18.14
2019-04-21T08:01:45.435Z,18.35
2019-04-21T08:04:31.991Z,18.69
2019-04-21T08:06:49.442Z,19.10
2019-04-21T08:09:13.685Z,19.47
2019-04-21T08:11:41.650Z,19.74
2019-04-21T08:14:23.670Z,19.92
2019-04-21T08:19:26.298Z,20.40
2019-04-21T08:22:02.171Z,20.77
2019-04-21T08:24:27.331Z,21.01
2019-04-21T08:27:04.965Z,21.13
2019-04-21T08:29:34.982Z,21.14
2019-04-21T08:34:34.851Z,21.14
2019-04-21T08:37:06.709Z,21.19
2019-04-21T08:39:37.952Z,21.36
2019-04-21T08:42:05.932Z,21.69
2019-04-21T08:44:43.193Z,22.10
2019-04-21T08:47:15.844Z,22.21
2019-04-21T08:49:43.646Z,22.36
2019-04-21T08:52:23.307Z,22.69
2019-04-21T08:54:52.639Z,22.77
2019-04-21T08:57:21.518Z,22.93
2019-04-21T08:59:51.831Z,22.75
2019-04-21T09:02:29.845Z,22.51
2019-04-21T09:04:58.698Z,22.76
2019-04-21T09:07:37.591Z,22.97
2019-04-21T09:10:02.929Z,22.90
2019-04-21T09:12:34.606Z,22.85
2019-04-21T09:15:08.098Z,22.91
2019-04-21T09:17:28.410Z,23.21
2019-04-21T09:20:13.883Z,23.01
2019-04-21T09:22:37.820Z,23.05
2019-04-21T09:25:14.648Z,23.19
2019-04-21T09:27:36.759Z,23.37
2019-04-21T09:29:59.352Z,23.19
2019-04-21T09:32:28.706Z,23.23
2019-04-21T09:34:57.993Z,23.28
2019-04-21T09:37:39.741Z,23.39
2019-04-21T09:39:59.543Z,23.37
2019-04-21T09:42:35.976Z,23.51
2019-04-21T09:45:05.784Z,23.68
2019-04-21T09:47:41.759Z,23.70
2019-04-21T09:50:06.773Z,23.99
2019-04-21T09:52:45.420Z,24.25
2019-04-21T09:55:14.281Z,23.87
2019-04-21T09:57:47.966Z,23.62
2019-04-21T10:00:22.483Z,23.54
2019-04-21T10:02:57.859Z,23.47
2019-04-21T10:05:19.312Z,23.71
2019-04-21T10:07:49.017Z,23.99
2019-04-21T10:10:19.243Z,23.81
2019-04-21T10:12:49.959Z,23.88
2019-04-21T10:15:21.983Z,23.90
2019-04-21T10:17:56.084Z,23.79
2019-04-21T10:20:26.579Z,23.84
2019-04-21T10:22:57.305Z,24.16
2019-04-21T10:25:28.261Z,24.28
2019-04-21T10:27:59.056Z,24.15
2019-04-21T10:30:28.998Z,24.14
2019-04-21T10:32:58.723Z,24.23
2019-04-21T10:35:29.023Z,24.04
2019-04-21T10:38:12.864Z,23.98
2019-04-21T10:40:33.853Z,24.04
2019-04-21T10:43:03.891Z,24.05
2019-04-21T10:45:34.897Z,24.01
2019-04-21T10:48:05.150Z,24.22
2019-04-21T10:50:36.960Z,24.75
2019-04-21T10:53:20.865Z,24.84
2019-04-21T10:56:04.477Z,24.78
2019-04-21T10:58:26.776Z,24.79
2019-04-21T11:01:04.174Z,24.44
2019-04-21T11:03:48.942Z,24.46
2019-04-21T11:06:20.986Z,24.63
2019-04-21T11:08:55.382Z,24.70
2019-04-21T11:11:23.745Z,24.70
2019-04-21T11:13:54.891Z,24.66
2019-04-21T11:16:24.745Z,24.85
2019-04-21T11:18:55.935Z,24.87
2019-04-21T11:21:27.149Z,24.92
2019-04-21T11:23:58.306Z,24.57
2019-04-21T11:26:29.871Z,24.40
2019-04-21T11:29:01.067Z,24.50
2019-04-21T11:31:31.476Z,24.46
2019-04-21T11:34:01.108Z,24.47
2019-04-21T11:36:31.436Z,24.54
2019-04-21T11:39:22.227Z,24.41
2019-04-21T11:41:41.624Z,24.45
2019-04-21T11:44:12.075Z,24.42
2019-04-21T11:46:42.681Z,24.65
2019-04-21T11:49:12.582Z,24.63
2019-04-21T11:51:42.795Z,24.56
2019-04-21T11:54:13.092Z,24.18
2019-04-21T11:56:43.375Z,24.15
2019-04-21T11:59:12.983Z,24.16
2019-04-21T12:01:43.527Z,24.05
2019-04-21T12:04:13.901Z,24.02
2019-04-21T12:06:47.288Z,23.95
2019-04-21T12:09:14.980Z,23.87
2019-04-21T12:11:45.372Z,23.86
2019-04-21T12:14:16.183Z,23.71
2019-04-21T12:16:46.825Z,23.63
2019-04-21T12:19:18.644Z,23.73
2019-04-21T12:22:00.413Z,23.59
2019-04-21T12:24:19.646Z,23.57
2019-04-21T12:26:49.931Z,23.67
2019-04-21T12:29:20.799Z,23.64
2019-04-21T12:32:04.047Z,23.77
2019-04-21T12:34:34.339Z,23.82
2019-04-21T12:37:04.612Z,23.65
2019-04-21T12:39:34.913Z,23.59
2019-04-21T12:42:04.812Z,23.53
2019-04-21T12:44:35.077Z,23.49
2019-04-21T12:47:05.839Z,23.53
2019-04-21T12:49:35.905Z,23.49
2019-04-21T12:52:06.295Z,23.55
2019-04-21T12:54:35.853Z,23.68
2019-04-21T12:57:05.533Z,23.87
2019-04-21T12:59:36.297Z,23.87
2019-04-21T13:02:07.561Z,23.84
2019-04-21T13:04:37.930Z,23.84
2019-04-21T13:07:07.855Z,23.86
2019-04-21T13:09:37.985Z,23.89
2019-04-21T13:12:08.976Z,23.83
2019-04-21T13:14:39.626Z,23.77
2019-04-21T13:17:10.041Z,23.76
2019-04-21T13:19:41.126Z,23.69
2019-04-21T13:22:12.090Z,23.76
2019-04-21T13:24:42.326Z,23.78
2019-04-21T13:27:12.750Z,23.81
2019-04-21T13:29:42.466Z,23.82
2019-04-21T13:32:12.588Z,23.75
2019-04-21T13:34:42.419Z,23.68
2019-04-21T13:37:12.099Z,23.76
2019-04-21T13:40:23.627Z,23.82
2019-04-21T13:42:40.198Z,23.77
2019-04-21T13:45:08.175Z,23.74
2019-04-21T13:47:38.675Z,23.75
2019-04-21T13:50:08.907Z,23.71
2019-04-21T13:52:38.629Z,23.82
2019-04-21T13:55:09.626Z,23.88
2019-04-21T13:57:40.919Z,23.91
2019-04-21T14:00:11.264Z,23.89
2019-04-21T14:02:42.681Z,23.85
2019-04-21T14:05:15.561Z,23.83
2019-04-21T14:07:46.138Z,23.80
2019-04-21T14:10:17.926Z,23.89
2019-04-21T14:12:48.910Z,23.90
2019-04-21T14:15:22.138Z,23.95
2019-04-21T14:17:53.059Z,23.89
2019-04-21T14:20:24.966Z,23.94
2019-04-21T14:22:57.133Z,23.90
2019-04-21T14:25:27.950Z,23.97
2019-04-21T14:27:57.926Z,24.02
2019-04-21T14:30:28.435Z,23.96
2019-04-21T14:32:58.191Z,23.93
2019-04-21T14:35:29.405Z,24.00
2019-04-21T14:38:00.268Z,24.09
2019-04-21T14:40:33.221Z,24.17
2019-04-21T14:43:02.801Z,24.16
2019-04-21T14:45:36.925Z,24.14
2019-04-21T14:48:12.178Z,24.11
2019-04-21T14:50:42.249Z,24.12
2019-04-21T14:53:17.945Z,24.08
2019-04-21T14:55:49.124Z,24.05
2019-04-21T14:58:19.177Z,24.02
2019-04-21T15:01:04.174Z,23.96
2019-04-21T15:03:34.328Z,24.00
2019-04-21T15:06:05.407Z,24.05
2019-04-21T15:08:35.434Z,24.02
2019-04-21T15:11:05.414Z,24.06
2019-04-21T15:13:35.502Z,24.13
2019-04-21T15:16:06.870Z,24.09
2019-04-21T15:18:36.889Z,24.05
2019-04-21T15:21:07.774Z,24.04
2019-04-21T15:23:38.202Z,24.07
2019-04-21T15:26:08.538Z,24.03
2019-04-21T15:28:40.510Z,24.03
2019-04-21T15:31:12.760Z,24.12
2019-04-21T15:33:41.354Z,24.10
2019-04-21T15:36:11.308Z,24.04
2019-04-21T15:38:40.896Z,24.11
2019-04-21T15:41:10.946Z,24.08
2019-04-21T15:43:42.583Z,24.07
2019-04-21T15:46:13.035Z,24.08
2019-04-21T15:48:42.953Z,24.04
2019-04-21T15:51:13.597Z,24.07
2019-04-21T15:53:45.882Z,24.05
2019-04-21T15:56:17.690Z,24.04
2019-04-21T15:58:50.571Z,23.97
2019-04-21T16:01:30.567Z,23.94
2019-04-21T16:04:02.103Z,23.92
2019-04-21T16:06:32.544Z,23.97
2019-04-21T16:09:03.283Z,23.97
2019-04-21T16:11:35.656Z,23.93
2019-04-21T16:14:07.938Z,23.90
2019-04-21T16:16:39.209Z,23.82
2019-04-21T16:19:10.078Z,23.85
2019-04-21T16:21:42.194Z,23.82
2019-04-21T16:24:12.201Z,23.81
2019-04-21T16:26:42.709Z,23.78
2019-04-21T16:29:13.292Z,23.80
2019-04-21T16:31:43.000Z,23.77
2019-04-21T16:34:13.770Z,23.74
2019-04-21T16:36:43.614Z,23.74
2019-04-21T16:39:13.568Z,23.73
2019-04-21T16:41:44.467Z,23.67
2019-04-21T16:44:14.199Z,23.67
2019-04-21T16:46:45.358Z,23.67
2019-04-21T16:49:15.855Z,23.64
2019-04-21T16:51:47.216Z,23.64
2019-04-21T16:54:19.905Z,23.72
2019-04-21T16:56:57.656Z,23.79
2019-04-21T16:59:30.606Z,23.80
2019-04-21T17:02:00.740Z,23.75
2019-04-21T17:04:30.702Z,23.71
2019-04-21T17:07:00.957Z,23.62
2019-04-21T17:09:30.711Z,23.48
2019-04-21T17:12:04.013Z,23.44
2019-04-21T17:14:49.682Z,23.44
2019-04-21T17:17:25.230Z,23.34
2019-04-21T17:19:41.827Z,23.26
2019-04-21T17:22:07.909Z,23.24
2019-04-21T17:24:38.027Z,23.18
2019-04-21T17:27:09.016Z,23.14
2019-04-21T17:29:39.037Z,23.13
2019-04-21T17:32:12.111Z,23.07
2019-04-21T17:34:42.018Z,23.05
2019-04-21T17:37:12.797Z,23.07
2019-04-21T17:39:42.982Z,23.00
2019-04-21T17:42:25.485Z,23.03
2019-04-21T17:44:45.404Z,23.00
2019-04-21T17:47:27.042Z,22.99
2019-04-21T17:49:51.548Z,22.96
2019-04-21T18:04:15.555Z,23.25
2019-04-21T18:07:08.097Z,22.83
2019-04-21T18:09:56.486Z,22.65
2019-04-21T18:12:17.982Z,22.54
2019-04-21T18:14:32.881Z,22.46
2019-04-21T18:17:02.546Z,22.32
2019-04-21T18:19:36.440Z,22.30
2019-04-21T18:22:12.840Z,22.30
2019-04-21T18:24:54.221Z,22.21
2019-04-21T18:27:15.699Z,22.11
2019-04-21T18:29:46.444Z,22.14
2019-04-21T18:32:19.713Z,22.11
2019-04-21T18:35:11.571Z,22.05
2019-04-21T18:37:50.837Z,21.94
2019-04-21T18:40:25.589Z,21.77
2019-04-21T18:43:30.809Z,21.71
2019-04-21T18:48:18.244Z,21.62
2019-04-21T18:50:53.249Z,21.61
2019-04-21T18:53:37.878Z,21.53
2019-04-21T18:55:59.418Z,21.51
2019-04-21T18:58:22.340Z,21.46
2019-04-21T19:01:02.765Z,21.42
2019-04-21T19:03:31.906Z,21.32
2019-04-21T19:06:03.874Z,21.27
2019-04-21T19:08:48.465Z,21.18
2019-04-21T19:11:19.012Z,21.11
2019-04-21T19:14:19.721Z,21.08
2019-04-21T19:16:42.901Z,21.07
2019-04-21T19:21:40.465Z,20.95
2019-04-21T19:24:28.190Z,20.94
2019-04-21T19:26:52.458Z,20.85
2019-04-21T19:29:24.079Z,20.78
2019-04-21T19:31:49.476Z,20.67
2019-04-21T19:34:11.349Z,20.58
2019-04-21T19:36:36.971Z,20.55
2019-04-21T19:39:16.243Z,20.46
2019-04-21T19:41:52.167Z,20.39
2019-04-21T19:44:26.178Z,20.33
2019-04-21T19:47:03.910Z,20.29
2019-04-21T19:49:40.572Z,20.21
2019-04-21T19:51:57.508Z,20.09
2019-04-21T19:54:25.091Z,20.08
2019-04-21T19:56:53.534Z,19.99
2019-04-21T19:59:34.005Z,19.89
2019-04-21T20:01:56.223Z,19.82
2019-04-21T20:04:34.415Z,19.74
2019-04-21T20:07:05.962Z,19.63
2019-04-21T20:09:46.211Z,19.54
2019-04-21T20:12:18.465Z,19.46
2019-04-21T20:14:55.391Z,19.33
2019-04-21T20:17:13.565Z,19.30
2019-04-21T20:19:36.235Z,19.24
2019-04-21T20:22:07.161Z,19.18
2019-04-21T20:24:39.501Z,19.14
2019-04-21T20:27:15.925Z,19.01
2019-04-21T20:29:57.880Z,18.95
2019-04-21T20:32:52.154Z,18.89
2019-04-21T20:35:02.839Z,18.80
2019-04-21T20:37:32.768Z,18.71
2019-04-21T20:39:53.394Z,18.67
2019-04-21T20:42:27.945Z,18.60
2019-04-21T20:45:23.556Z,18.54
2019-04-21T20:47:29.379Z,18.52
2019-04-21T20:50:03.284Z,18.42
2019-04-21T20:52:41.345Z,18.33
2019-04-21T20:55:05.888Z,18.21
2019-04-21T20:57:39.787Z,18.11
2019-04-21T21:00:13.693Z,18.06
2019-04-21T21:02:49.246Z,17.98
2019-04-21T21:05:14.320Z,17.94
2019-04-21T21:07:50.047Z,17.90
2019-04-21T21:10:20.747Z,17.86
2019-04-21T21:12:57.288Z,17.80
2019-04-21T21:15:18.339Z,17.78
2019-04-21T21:18:13.421Z,17.76
2019-04-21T21:20:32.465Z,17.74
2019-04-21T21:22:57.306Z,17.64
2019-04-21T21:25:41.404Z,17.59
2019-04-21T21:27:55.279Z,17.55
2019-04-21T21:30:33.840Z,17.53
2019-04-21T21:33:11.457Z,17.43
2019-04-21T21:35:35.760Z,17.30
2019-04-21T21:38:13.128Z,17.20
2019-04-21T21:40:38.155Z,17.08
2019-04-21T21:42:55.365Z,17.06
2019-04-21T21:45:27.504Z,17.03
2019-04-21T21:48:12.673Z,17.01
2019-04-21T21:50:38.664Z,16.97
2019-04-21T21:53:06.477Z,16.91
2019-04-21T21:55:32.793Z,16.86
2019-04-21T21:58:03.920Z,16.78
2019-04-21T22:00:36.938Z,16.68
2019-04-21T22:03:16.287Z,16.55
2019-04-21T22:05:45.522Z,16.48
2019-04-21T22:08:08.399Z,16.43
2019-04-21T22:10:39.173Z,16.44
2019-04-21T22:13:14.354Z,16.39
2019-04-21T22:15:41.548Z,16.36
2019-04-21T22:18:31.571Z,16.32
2019-04-21T22:20:58.863Z,16.35
2019-04-21T22:23:32.367Z,16.42
2019-04-21T22:25:47.538Z,16.45
2019-04-21T22:28:17.797Z,16.43
2019-04-21T22:30:51.250Z,16.37
2019-04-21T22:33:21.706Z,16.25
2019-04-21T22:36:00.396Z,16.12
2019-04-21T22:38:38.580Z,16.05
2019-04-21T22:41:08.752Z,15.97
2019-04-21T22:43:32.870Z,15.98
2019-04-21T22:45:55.913Z,15.95
2019-04-21T22:48:28.592Z,15.85
2019-04-21T22:50:58.220Z,15.79
2019-04-21T22:53:34.766Z,15.76
2019-04-21T22:56:07.399Z,15.70
2019-04-21T22:58:35.709Z,15.64
2019-04-21T23:01:04.265Z,15.55
2019-04-21T23:03:33.969Z,15.50
2019-04-21T23:06:10.931Z,15.52
2019-04-21T23:08:40.528Z,15.49
2019-04-21T23:11:10.797Z,15.49
2019-04-21T23:13:38.678Z,15.43
2019-04-21T23:16:09.989Z,15.36
2019-04-21T23:18:59.399Z,15.33
2019-04-21T23:21:27.773Z,15.37
2019-04-21T23:24:05.852Z,15.40
2019-04-21T23:26:33.176Z,15.41
2019-04-21T23:29:10.324Z,15.42
2019-04-21T23:31:41.803Z,15.47
2019-04-21T23:33:52.439Z,15.47
2019-04-21T23:36:26.297Z,15.47
2019-04-21T23:38:55.399Z,15.47
2019-04-21T23:41:26.065Z,15.38
2019-04-21T23:44:03.120Z,15.32
2019-04-21T23:46:33.038Z,15.36
2019-04-21T23:49:16.063Z,15.32
2019-04-21T23:51:43.452Z,15.20
2019-04-21T23:54:01.902Z,15.06
2019-04-21T23:56:35.791Z,14.92
2019-04-21T23:59:06.406Z,14.80
